Time;durP1;ratioP1;P1;durP2;ratioP2;P2;SDS_P1;SDS_P2;PMS_P1;PMS_P2;Temp;Humidity;BMP_temperature;BMP_pressure;BME280_temperature;BME280_humidity;BME280_pressure;Samples;Min_cycle;Max_cycle;Signal;HPM_P1;HPM_P2
2023/03/05 00:01:26;;;;;;;7.25;3.45;;;;;;;-1.71;40.95;98948.67;1714595;82;21082;-62
2023/03/05 00:03:57;;;;;;;8.25;3.80;;;;;;;-1.69;41.06;98960.99;1708028;82;21016;-63
2023/03/05 00:06:26;;;;;;;4.80;3.05;;;;;;;-1.62;41.09;98968.20;1709787;82;20988;-63
2023/03/05 00:08:55;;;;;;;4.85;2.42;;;;;;;-1.60;41.05;98964.77;1706366;82;21042;-68
2023/03/05 00:11:24;;;;;;;7.15;2.87;;;;;;;-1.52;41.19;98966.38;1706852;82;20937;-62
2023/03/05 00:13:52;;;;;;;5.22;2.85;;;;;;;-1.43;41.21;98973.95;1718763;82;20972;-67
2023/03/05 00:16:19;;;;;;;6.00;3.20;;;;;;;-1.33;41.53;98967.88;1722437;81;21579;-61
2023/03/05 00:18:46;;;;;;;5.35;2.45;;;;;;;-1.26;41.84;98960.55;1719058;81;21389;-61
2023/03/05 00:21:30;;;;;;;3.85;1.85;;;;;;;-1.24;42.13;98948.55;1712108;82;21560;-68
2023/03/05 00:24:03;;;;;;;5.37;2.05;;;;;;;-1.19;42.28;98940.38;1715329;82;21103;-63
2023/03/05 00:26:29;;;;;;;3.22;1.50;;;;;;;-1.15;42.47;98934.37;1716157;82;21016;-67
2023/03/05 00:28:56;;;;;;;3.25;1.98;;;;;;;-1.13;42.50;98930.05;1679015;83;21015;-63
2023/03/05 00:31:29;;;;;;;3.55;1.70;;;;;;;-1.11;42.62;98920.23;1658856;85;21011;-65
2023/03/05 00:34:00;;;;;;;4.65;2.35;;;;;;;-1.09;42.78;98924.88;1642967;85;21114;-67
2023/03/05 00:36:27;;;;;;;4.87;2.50;;;;;;;-1.10;42.71;98924.48;1640310;84;21620;-65
2023/03/05 00:38:56;;;;;;;5.40;3.05;;;;;;;-1.09;42.68;98918.48;1714823;81;21323;-68
2023/03/05 00:41:22;;;;;;;9.13;3.60;;;;;;;-1.09;42.66;98920.63;1714439;81;21030;-65
2023/03/05 00:43:49;;;;;;;8.08;3.60;;;;;;;-1.07;42.65;98909.06;1713258;82;20985;-65
2023/03/05 00:46:16;;;;;;;8.68;3.27;;;;;;;-1.07;42.65;98905.22;1720311;81;21066;-69
2023/03/05 00:48:45;;;;;;;8.00;3.92;;;;;;;-1.04;42.70;98903.89;1718331;81;20964;-67
2023/03/05 00:51:12;;;;;;;6.97;4.03;;;;;;;-1.01;42.67;98896.17;1716913;82;21003;-65
2023/03/05 00:53:39;;;;;;;6.97;2.83;;;;;;;-0.99;42.82;98895.28;1715234;81;21071;-65
2023/03/05 00:56:06;;;;;;;6.55;3.10;;;;;;;-0.95;42.77;98884.58;1719651;82;20898;-66
2023/03/05 00:58:33;;;;;;;9.90;3.70;;;;;;;-0.94;42.73;98883.70;1717774;82;21471;-59
2023/03/05 01:01:01;;;;;;;4.65;3.08;;;;;;;-0.94;42.92;98870.88;1719415;82;21597;-60
2023/03/05 01:03:30;;;;;;;4.90;3.40;;;;;;;-0.95;42.92;98874.33;1714135;82;20914;-59
2023/03/05 01:05:59;;;;;;;12.80;4.53;;;;;;;-0.99;42.92;98864.97;1716099;82;20949;-62
2023/03/05 01:08:26;;;;;;;6.15;3.10;;;;;;;-1.05;43.06;98865.06;1717457;82;21570;-61
2023/03/05 01:10:53;;;;;;;3.75;2.30;;;;;;;-1.09;43.14;98854.02;1718176;82;21002;-62
2023/03/05 01:13:19;;;;;;;6.57;2.30;;;;;;;-1.16;43.18;98854.52;1719588;79;20949;-63
2023/03/05 01:15:47;;;;;;;4.05;2.25;;;;;;;-1.21;43.33;98851.17;1775814;79;21031;-60
2023/03/05 01:18:14;;;;;;;4.03;2.25;;;;;;;-1.27;43.37;98852.55;1779896;79;20998;-60
2023/03/05 01:20:40;;;;;;;3.52;2.02;;;;;;;-1.34;43.58;98844.55;1779272;79;21153;-59
2023/03/05 01:23:07;;;;;;;6.15;3.15;;;;;;;-1.44;43.69;98842.52;1782673;79;21140;-60
2023/03/05 01:25:33;;;;;;;8.73;3.27;;;;;;;-1.52;43.74;98838.37;1775388;79;21042;-62
2023/03/05 01:28:01;;;;;;;11.08;3.33;;;;;;;-1.61;43.97;98824.81;1774198;79;21549;-61
2023/03/05 01:30:27;;;;;;;8.10;3.00;;;;;;;-1.64;43.97;98824.86;1778502;77;21045;-67
2023/03/05 01:32:55;;;;;;;4.17;2.20;;;;;;;-1.69;44.04;98824.06;1774240;79;21040;-62
2023/03/05 01:35:24;;;;;;;;;;;;;;;-1.73;44.17;98822.42;1778187;77;21061;-68
2023/03/05 01:37:52;;;;;;;5.75;2.00;;;;;;;-1.81;44.50;98814.82;1775265;79;20093;-64
2023/03/05 01:40:25;;;;;;;3.45;1.62;;;;;;;-1.86;44.42;98814.02;1778688;79;21104;-65
2023/03/05 01:42:59;;;;;;;5.05;2.17;;;;;;;-1.87;44.40;98808.95;1773887;79;21530;-60
2023/03/05 01:45:31;;;;;;;6.12;2.00;;;;;;;-1.87;44.57;98801.27;1774448;79;21050;-64
2023/03/05 01:47:58;;;;;;;5.00;1.70;;;;;;;-1.93;44.61;98806.43;1773987;79;21057;-63
2023/03/05 01:50:26;;;;;;;3.08;1.70;;;;;;;-1.95;44.61;98803.06;1782145;79;21073;-62
2023/03/05 01:52:58;;;;;;;4.22;1.87;;;;;;;-1.99;44.56;98798.83;1767373;79;21029;-60
2023/03/05 01:55:27;;;;;;;4.50;1.80;;;;;;;-2.01;44.71;98792.91;1777015;79;22239;-60
2023/03/05 01:58:06;;;;;;;3.75;2.15;;;;;;;-1.99;45.26;98798.83;1782417;79;21137;-61
2023/03/05 02:00:38;;;;;;;3.87;1.50;;;;;;;-2.00;45.25;98794.59;1779823;79;20958;-67
2023/03/05 02:03:08;;;;;;;3.47;1.72;;;;;;;-2.01;45.09;98793.75;1736281;81;21067;-64
2023/03/05 02:05:38;;;;;;;5.83;1.92;;;;;;;-2.01;45.10;98790.35;1737440;81;20972;-63
2023/03/05 02:08:09;;;;;;;8.10;4.20;;;;;;;-2.01;45.29;98785.23;1776387;79;21025;-67
2023/03/05 02:10:42;;;;;;;9.23;4.33;;;;;;;-2.03;45.30;98788.64;1736635;81;21059;-62
2023/03/05 02:13:13;;;;;;;12.30;6.15;;;;;;;-2.04;45.31;98782.28;1734556;80;20983;-60
2023/03/05 02:15:41;;;;;;;16.90;9.13;;;;;;;-2.07;45.35;98776.76;1699558;83;21061;-61
2023/03/05 02:18:09;;;;;;;7.85;3.25;;;;;;;-2.09;45.41;98770.81;1692886;83;21520;-68
2023/03/05 02:20:52;;;;;;;4.87;2.65;;;;;;;-2.08;45.76;98771.65;1696708;83;21664;-67
2023/03/05 02:23:21;;;;;;;6.78;2.90;;;;;;;-2.09;45.79;98764.41;1698109;83;21088;-60
2023/03/05 02:25:48;;;;;;;5.67;2.37;;;;;;;-2.10;45.95;98756.34;1693420;83;20957;-62
2023/03/05 02:28:40;;;;;;;8.50;3.12;;;;;;;-2.10;46.19;98756.34;1695776;83;20991;-65
2023/03/05 02:31:16;;;;;;;10.85;2.60;;;;;;;-2.10;46.31;98757.62;1696390;83;20989;-63
2023/03/05 02:33:44;;;;;;;7.87;2.70;;;;;;;-2.11;45.94;98746.95;1696723;83;21544;-59
2023/03/05 02:36:11;;;;;;;8.90;2.50;;;;;;;-2.14;45.96;98739.75;1694283;83;20977;-62
2023/03/05 02:38:38;;;;;;;5.60;2.60;;;;;;;-2.15;45.94;98744.03;1693719;83;21448;-63
2023/03/05 02:41:05;;;;;;;5.20;2.20;;;;;;;-2.14;46.13;98738.04;1692268;83;22061;-64
2023/03/05 02:43:31;;;;;;;3.77;2.22;;;;;;;-2.14;46.17;98736.76;1699721;83;22378;-65
2023/03/05 02:45:58;;;;;;;4.03;2.30;;;;;;;-2.16;46.27;98728.25;1694797;83;20949;-67
2023/03/05 02:48:24;;;;;;;5.10;1.97;;;;;;;-2.17;46.29;98732.97;1694511;83;21037;-64
2023/03/05 02:50:51;;;;;;;5.78;2.70;;;;;;;-2.18;46.37;98737.67;1700724;83;21002;-60
2023/03/05 02:53:18;;;;;;;5.70;2.00;;;;;;;-2.18;46.49;98722.33;1690714;83;21011;-59
2023/03/05 02:55:49;;;;;;;4.83;2.15;;;;;;;-2.15;46.48;98718.89;1690792;83;21559;-62
2023/03/05 02:58:17;;;;;;;5.25;2.05;;;;;;;-2.05;46.68;98723.84;1684654;82;20936;-63
2023/03/05 03:00:45;;;;;;;5.95;1.65;;;;;;;-1.99;46.46;98727.20;1700403;83;20988;-63
2023/03/05 03:03:13;;;;;;;6.35;1.90;;;;;;;-1.92;46.82;98736.07;1691703;83;21472;-60
2023/03/05 03:05:40;;;;;;;;;;;;;;;-1.83;46.87;98737.66;1684950;83;21037;-65
2023/03/05 03:08:07;;;;;;;3.67;1.60;;;;;;;-1.76;47.16;98738.00;1696284;83;20399;-66
2023/03/05 03:10:34;;;;;;;2.87;1.32;;;;;;;-1.72;47.22;98733.69;1693680;83;21825;-60
2023/03/05 03:13:00;;;;;;;3.50;1.40;;;;;;;-1.69;47.36;98746.00;1701613;83;21078;-63
2023/03/05 03:15:27;;;;;;;4.58;1.60;;;;;;;-1.60;47.24;98730.53;1688621;82;21002;-60
2023/03/05 03:17:54;;;;;;;4.87;1.80;;;;;;;-1.50;47.47;98739.36;1705415;82;21012;-60
2023/03/05 03:20:21;;;;;;;6.42;1.92;;;;;;;-1.44;47.50;98731.58;1695910;82;20898;-61
2023/03/05 03:22:48;;;;;;;9.33;1.90;;;;;;;-1.38;47.54;98727.20;1698330;82;21024;-62
2023/03/05 03:25:19;;;;;;;3.58;1.85;;;;;;;-1.35;47.56;98728.87;1698719;82;21501;-64
2023/03/05 03:27:46;;;;;;;5.87;1.92;;;;;;;-1.34;47.55;98728.02;1729929;81;20976;-67
2023/03/05 03:30:13;;;;;;;5.45;1.60;;;;;;;-1.33;47.70;98732.27;1724233;81;21525;-62
2023/03/05 03:32:40;;;;;;;8.15;1.70;;;;;;;-1.30;47.75;98721.13;1725286;82;21999;-68
2023/03/05 03:35:07;;;;;;;6.70;1.50;;;;;;;-1.31;47.83;98720.29;1700149;82;21484;-69
2023/03/05 03:37:34;;;;;;;5.05;1.42;;;;;;;-1.32;47.92;98713.45;1732791;81;20986;-66
2023/03/05 03:40:01;;;;;;;6.62;1.40;;;;;;;-1.30;48.00;98705.33;1763882;79;20952;-65
2023/03/05 03:42:27;;;;;;;4.70;1.60;;;;;;;-1.29;48.08;98700.60;1768072;79;20985;-68
2023/03/05 03:44:54;;;;;;;5.42;1.20;;;;;;;-1.30;48.03;98693.80;1765187;79;20976;-69
2023/03/05 03:47:21;;;;;;;2.12;1.20;;;;;;;-1.36;48.15;98704.14;1769601;79;21014;-61
2023/03/05 03:49:47;;;;;;;3.70;1.60;;;;;;;-1.36;48.26;98692.63;1765582;79;20998;-61
2023/03/05 03:52:14;;;;;;;3.50;1.57;;;;;;;-1.33;48.32;98700.70;1766691;79;21322;-68
2023/03/05 03:54:40;;;;;;;4.97;1.62;;;;;;;-1.33;48.37;98693.85;1765631;79;21596;-59
2023/03/05 03:57:09;;;;;;;4.10;1.70;;;;;;;-1.33;48.42;98700.25;1770564;79;20916;-59
2023/03/05 03:59:35;;;;;;;2.87;1.20;;;;;;;-1.29;48.38;98690.36;1767492;79;21064;-60
2023/03/05 04:02:02;;;;;;;1.52;0.90;;;;;;;-1.29;48.39;98674.98;1766180;79;21549;-60
2023/03/05 04:04:29;;;;;;;3.50;1.35;;;;;;;-1.31;48.22;98693.41;1761784;79;21611;-60
2023/03/05 04:06:56;;;;;;;2.60;1.27;;;;;;;-1.27;48.31;98705.27;1769163;79;21240;-65
2023/03/05 04:09:23;;;;;;;2.12;1.10;;;;;;;-1.24;48.37;98701.38;1771963;79;20993;-60
2023/03/05 04:11:49;;;;;;;3.50;1.57;;;;;;;-1.22;48.56;98686.84;1758475;79;21046;-59
2023/03/05 04:14:16;;;;;;;6.55;1.40;;;;;;;-1.21;48.56;98685.96;1766950;79;21133;-60
2023/03/05 04:16:45;;;;;;;5.20;1.50;;;;;;;-1.22;48.57;98679.16;1780906;78;20995;-60
2023/03/05 04:19:15;;;;;;;4.70;1.35;;;;;;;-1.23;48.60;98674.92;1716507;81;20956;-62
2023/03/05 04:21:42;;;;;;;4.83;1.40;;;;;;;-1.27;48.65;98667.30;1716478;82;21037;-59
2023/03/05 04:24:08;;;;;;;1.27;1.00;;;;;;;-1.30;48.68;98666.91;1780272;79;21508;-61
2023/03/05 04:26:35;;;;;;;2.17;0.90;;;;;;;-1.32;48.71;98662.23;1783698;78;21510;-60
2023/03/05 04:29:02;;;;;;;3.97;1.17;;;;;;;-1.39;48.64;98658.11;1777754;79;21174;-64
2023/03/05 04:31:29;;;;;;;2.35;1.40;;;;;;;-1.46;48.76;98661.62;1776334;79;21038;-59
2023/03/05 04:33:55;;;;;;;4.85;1.60;;;;;;;-1.53;48.82;98657.48;1737490;80;21592;-66
2023/03/05 04:36:22;;;;;;;4.08;1.42;;;;;;;-1.60;49.05;98651.19;1778007;79;21764;-61
2023/03/05 04:38:48;;;;;;;6.80;1.65;;;;;;;-1.65;48.94;98649.12;1740452;81;21579;-59
2023/03/05 04:41:15;;;;;;;3.12;1.77;;;;;;;-1.73;48.98;98650.95;1739711;81;21005;-60
2023/03/05 04:43:41;;;;;;;3.00;1.40;;;;;;;-1.81;49.05;98647.66;1778295;78;21133;-59
2023/03/05 04:46:08;;;;;;;4.37;1.80;;;;;;;-1.84;49.11;98650.27;1739576;81;20990;-61
2023/03/05 04:48:35;;;;;;;3.57;1.80;;;;;;;-1.90;49.13;98651.63;1777237;79;21054;-62
2023/03/05 04:51:01;;;;;;;3.83;1.40;;;;;;;-1.99;49.16;98644.91;1780586;79;21013;-60
2023/03/05 04:53:28;;;;;;;3.67;1.75;;;;;;;-2.04;49.14;98642.43;1741257;81;21046;-60
2023/03/05 04:55:55;;;;;;;2.33;1.00;;;;;;;-2.11;49.18;98647.20;1773906;79;21005;-60
2023/03/05 04:58:23;;;;;;;5.42;1.60;;;;;;;-2.16;49.34;98651.53;1781681;79;20935;-62
2023/03/05 05:00:51;;;;;;;3.80;1.42;;;;;;;-2.19;49.37;98645.62;1776125;78;21513;-63
2023/03/05 05:03:17;;;;;;;4.45;1.42;;;;;;;-2.22;49.39;98641.38;1784694;79;20955;-62
2023/03/05 05:05:44;;;;;;;2.20;1.07;;;;;;;-2.25;49.45;98646.55;1784972;79;20959;-61
2023/03/05 05:08:11;;;;;;;2.15;1.10;;;;;;;-2.29;49.43;98648.74;1773830;78;20956;-63
2023/03/05 05:10:38;;;;;;;3.37;1.40;;;;;;;-2.31;49.57;98638.95;1739878;80;21002;-63
2023/03/05 05:13:06;;;;;;;5.60;2.12;;;;;;;-2.34;49.50;98637.72;1776305;78;21027;-67
2023/03/05 05:15:32;;;;;;;1.52;1.05;;;;;;;-2.41;49.56;98638.64;1777815;78;21129;-60
2023/03/05 05:17:59;;;;;;;6.05;1.65;;;;;;;-2.44;49.73;98631.86;1769406;79;20993;-63
2023/03/05 05:20:25;;;;;;;2.50;1.20;;;;;;;-2.46;49.71;98637.45;1773974;79;20947;-62
2023/03/05 05:22:52;;;;;;;4.20;1.57;;;;;;;-2.50;49.80;98631.50;1773920;79;21138;-61
2023/03/05 05:25:19;;;;;;;4.28;1.80;;;;;;;-2.50;49.89;98625.55;1751250;79;20993;-65
2023/03/05 05:27:45;;;;;;;4.22;1.70;;;;;;;-2.52;49.93;98624.31;1773807;79;21426;-59
2023/03/05 05:30:13;;;;;;;3.25;1.47;;;;;;;-2.54;49.92;98625.19;1776532;79;21474;-61
2023/03/05 05:32:39;;;;;;;;;;;;;;;-2.59;49.93;98634.17;1777592;79;20974;-61
2023/03/05 05:35:08;;;;;;;6.87;2.15;;;;;;;-2.61;50.17;98630.78;1771116;79;20221;-60
2023/03/05 05:37:35;;;;;;;3.20;1.50;;;;;;;-2.63;50.08;98629.98;1771585;79;21627;-63
2023/03/05 05:40:04;;;;;;;4.80;2.52;;;;;;;-2.64;50.11;98630.83;1777064;79;21041;-61
2023/03/05 05:42:31;;;;;;;4.22;1.47;;;;;;;-2.63;50.23;98634.22;1776946;79;21064;-63
2023/03/05 05:44:58;;;;;;;3.23;1.30;;;;;;;-2.58;50.24;98623.08;1776758;79;20978;-65
2023/03/05 05:47:25;;;;;;;;;;;;;;;-2.52;50.29;98631.98;1777526;79;20951;-61
2023/03/05 05:49:51;;;;;;;4.87;1.53;;;;;;;-2.47;50.46;98631.46;1776525;79;20098;-64
2023/03/05 05:52:18;;;;;;;5.37;2.07;;;;;;;-2.38;50.37;98630.94;1777532;79;20990;-63
2023/03/05 05:54:50;;;;;;;3.80;1.70;;;;;;;-2.30;50.43;98635.52;1776598;79;21539;-60
2023/03/05 05:57:17;;;;;;;3.05;1.60;;;;;;;-2.16;50.45;98631.07;1776631;79;21071;-62
2023/03/05 05:59:44;;;;;;;4.53;1.98;;;;;;;-2.05;50.48;98626.66;1771645;79;20985;-61
2023/03/05 06:02:11;;;;;;;1.85;1.32;;;;;;;-1.90;50.60;98624.77;1750821;79;20965;-69
2023/03/05 06:04:39;;;;;;;4.87;1.87;;;;;;;-1.76;50.54;98622.84;1781476;79;21021;-69
2023/03/05 06:07:06;;;;;;;5.05;1.32;;;;;;;-1.61;50.57;98622.59;1775066;79;20967;-66
2023/03/05 06:09:35;;;;;;;2.70;1.22;;;;;;;-1.42;50.61;98615.91;1780663;79;21039;-66
2023/03/05 06:12:02;;;;;;;2.17;1.00;;;;;;;-1.24;50.52;98619.42;1768320;79;21452;-69
2023/03/05 06:14:29;;;;;;;3.95;1.72;;;;;;;-1.07;50.53;98617.00;1770359;78;21069;-60
2023/03/05 06:16:56;;;;;;;2.67;1.60;;;;;;;-0.89;50.44;98616.68;1776989;79;21081;-68
2023/03/05 06:19:22;;;;;;;3.27;1.60;;;;;;;-0.82;50.38;98596.45;1780515;78;21002;-65
2023/03/05 06:21:49;;;;;;;3.00;1.37;;;;;;;-0.71;50.38;98609.90;1780299;79;21603;-66
2023/03/05 06:24:18;;;;;;;3.87;1.72;;;;;;;-0.62;50.35;98606.31;1773583;78;21526;-62
2023/03/05 06:26:45;;;;;;;3.20;1.42;;;;;;;-0.50;50.33;98610.38;1776098;79;21057;-68
2023/03/05 06:29:13;;;;;;;2.67;1.40;;;;;;;-0.49;50.30;98601.80;1782285;79;20978;-63
2023/03/05 06:31:39;;;;;;;;;;;;;;;-0.32;50.38;98600.99;1782852;78;21026;-60
2023/03/05 06:34:06;;;;;;;7.23;1.90;;;;;;;-0.16;50.32;98603.25;1766231;78;20206;-59
2023/03/05 06:36:32;;;;;;;4.00;1.67;;;;;;;-0.05;50.23;98601.29;1784461;79;21077;-58
2023/03/05 06:38:59;;;;;;;4.23;2.13;;;;;;;0.11;50.29;98603.92;1785034;78;20951;-60
2023/03/05 06:41:29;;;;;;;3.27;1.62;;;;;;;0.24;50.22;98606.19;1779924;78;21032;-60
2023/03/05 06:43:59;;;;;;;2.77;1.75;;;;;;;0.49;50.38;98602.16;1787276;78;21533;-59
2023/03/05 06:46:32;;;;;;;4.40;2.10;;;;;;;0.78;50.39;98609.12;1784881;78;21033;-59
2023/03/05 06:49:02;;;;;;;8.03;1.75;;;;;;;1.00;50.28;98609.41;1782342;78;21624;-59
2023/03/05 06:51:34;;;;;;;3.85;2.02;;;;;;;1.26;50.25;98602.72;1789682;79;21528;-60
2023/03/05 06:54:08;;;;;;;3.55;1.80;;;;;;;1.44;49.85;98603.52;1789573;79;21040;-60
2023/03/05 06:56:37;;;;;;;3.72;1.40;;;;;;;1.63;50.00;98597.85;1787883;79;21034;-59
2023/03/05 06:59:04;;;;;;;3.10;1.65;;;;;;;1.75;49.89;98593.63;1785154;78;21065;-60
2023/03/05 07:01:31;;;;;;;4.22;1.90;;;;;;;2.04;49.89;98595.76;1788107;78;20963;-61
2023/03/05 07:03:59;;;;;;;3.62;1.80;;;;;;;2.41;50.08;98593.73;1786691;78;21061;-59
2023/03/05 07:06:27;;;;;;;4.65;1.80;;;;;;;2.77;49.96;98594.67;1792227;79;20953;-59
2023/03/05 07:08:57;;;;;;;3.92;2.12;;;;;;;3.06;49.76;98595.44;1792443;78;21025;-62
2023/03/05 07:11:25;;;;;;;3.33;1.90;;;;;;;3.07;49.66;98592.79;1787221;78;21077;-60
2023/03/05 07:13:51;;;;;;;3.92;1.95;;;;;;;3.36;49.64;98585.33;1792789;79;21676;-62
2023/03/05 07:16:22;;;;;;;2.70;1.50;;;;;;;3.73;49.57;98587.84;1758244;79;21108;-61
2023/03/05 07:18:50;;;;;;;5.30;1.95;;;;;;;3.90;49.58;98592.36;1741128;80;21077;-60
2023/03/05 07:21:20;;;;;;;;;;;;;;;4.41;49.48;98592.96;1744843;80;20949;-64
2023/03/05 07:23:47;;;;;;;6.20;3.80;;;;;;;4.85;49.11;98587.72;1749433;80;20221;-61
2023/03/05 07:26:15;;;;;;;4.35;3.12;;;;;;;5.14;49.35;98586.00;1730544;80;21032;-62
2023/03/05 07:28:42;;;;;;;7.37;3.65;;;;;;;5.33;49.16;98581.33;1733785;80;21022;-60
2023/03/05 07:31:17;;;;;;;6.53;3.60;;;;;;;5.49;49.02;98586.22;1740687;80;21028;-63
2023/03/05 07:33:48;;;;;;;5.80;2.83;;;;;;;5.65;49.08;98586.81;1744510;80;20970;-62
2023/03/05 07:36:17;;;;;;;5.80;2.75;;;;;;;5.87;49.03;98587.51;1731660;80;21519;-62
2023/03/05 07:38:44;;;;;;;4.30;1.98;;;;;;;6.13;48.92;98586.31;1734981;79;20997;-60
2023/03/05 07:41:18;;;;;;;6.17;3.27;;;;;;;6.45;48.96;98579.59;1735534;80;21030;-59
2023/03/05 07:43:47;;;;;;;7.80;4.08;;;;;;;6.62;48.55;98577.94;1739372;80;20993;-60
2023/03/05 07:46:18;;;;;;;2.45;1.10;;;;;;;6.73;48.42;98578.25;1733652;80;21030;-62
2023/03/05 07:48:44;;;;;;;1.82;1.47;;;;;;;6.82;48.21;98573.89;1742785;80;20989;-64
2023/03/05 07:51:16;;;;;;;1.67;1.00;;;;;;;6.99;48.20;98576.92;1738379;80;20974;-61
2023/03/05 07:53:45;;;;;;;3.98;1.12;;;;;;;7.35;48.06;98574.66;1708471;80;20946;-62
2023/03/05 07:56:12;;;;;;;4.20;1.40;;;;;;;7.81;48.13;98574.35;1736430;80;21073;-60
2023/03/05 07:58:39;;;;;;;1.82;0.90;;;;;;;8.40;48.15;98572.00;1732454;80;21565;-62
2023/03/05 08:01:12;;;;;;;2.22;0.98;;;;;;;9.13;48.07;98572.52;1742037;80;21494;-64
2023/03/05 08:03:41;;;;;;;1.50;0.90;;;;;;;9.53;47.68;98564.45;1742756;80;21171;-64
2023/03/05 08:06:09;;;;;;;3.45;0.85;;;;;;;9.58;47.48;98566.31;1737604;80;20954;-60
2023/03/05 08:08:36;;;;;;;3.12;1.00;;;;;;;9.99;47.72;98566.78;1733393;80;21462;-60
2023/03/05 08:11:08;;;;;;;11.35;1.80;;;;;;;10.40;47.13;98563.34;1730013;80;21065;-61
2023/03/05 08:13:34;;;;;;;5.25;0.98;;;;;;;10.80;46.67;98563.32;1739213;80;21066;-60
2023/03/05 08:16:14;;;;;;;1.75;1.17;;;;;;;10.90;46.80;98560.47;1743085;80;21514;-60
2023/03/05 08:18:41;;;;;;;2.22;1.00;;;;;;;11.03;46.12;98564.86;1745920;80;21013;-62
2023/03/05 08:21:26;;;;;;;1.37;0.95;;;;;;;11.38;46.03;98561.98;1681749;82;21142;-61
2023/03/05 08:23:47;;;;;;;7.60;1.32;;;;;;;11.96;45.93;98558.86;1709450;82;20999;-61
2023/03/05 08:26:18;;;;;;;2.05;1.10;;;;;;;12.70;45.64;98557.80;1687878;83;21631;-61
2023/03/05 08:28:45;;;;;;;6.37;0.88;;;;;;;13.56;45.49;98549.97;1676850;84;21518;-64
2023/03/05 08:31:14;;;;;;;5.90;0.80;;;;;;;14.15;44.16;98557.98;1733109;80;21032;-64
2023/03/05 08:33:42;;;;;;;3.27;0.68;;;;;;;13.87;42.84;98548.87;1732161;80;21057;-61
2023/03/05 08:36:09;;;;;;;3.08;1.05;;;;;;;12.87;41.93;98551.29;1732637;80;21005;-63
2023/03/05 08:38:43;;;;;;;3.15;0.60;;;;;;;11.58;41.41;98551.93;1697473;84;21039;-62
2023/03/05 08:41:09;;;;;;;1.32;0.70;;;;;;;10.74;41.21;98550.68;1725490;80;21113;-62
2023/03/05 08:43:41;;;;;;;1.40;0.68;;;;;;;9.97;40.46;98556.94;1729673;80;21088;-61
2023/03/05 08:46:05;;;;;;;1.10;0.57;;;;;;;9.40;40.43;98557.00;1729047;81;20982;-60
2023/03/05 08:48:32;;;;;;;1.05;0.50;;;;;;;9.12;39.95;98557.36;1688587;82;21571;-62
2023/03/05 08:51:06;;;;;;;0.80;0.50;;;;;;;8.81;39.83;98553.61;1661599;84;21145;-62
2023/03/05 08:53:33;;;;;;;1.55;0.50;;;;;;;8.79;39.30;98561.96;1729478;80;20999;-60
2023/03/05 08:56:00;;;;;;;2.33;0.70;;;;;;;8.81;39.26;98554.91;1730747;80;21074;-64
2023/03/05 08:58:27;;;;;;;1.22;0.68;;;;;;;9.23;39.23;98549.38;1738520;80;21046;-62
2023/03/05 09:00:54;;;;;;;11.00;0.60;;;;;;;9.70;38.37;98546.47;1733359;81;21045;-60
2023/03/05 09:03:22;;;;;;;1.65;0.62;;;;;;;9.56;38.50;98552.53;1736288;80;20987;-60
2023/03/05 09:05:50;;;;;;;;;;;;;;;9.62;38.21;98537.81;1741069;81;20972;-65
2023/03/05 09:08:17;;;;;;;2.02;0.65;;;;;;;9.85;37.85;98555.09;1735709;81;20277;-63
2023/03/05 09:10:45;;;;;;;;;;;;;;;9.97;37.69;98542.59;1746334;79;21557;-62
2023/03/05 09:13:12;;;;;;;1.85;0.70;;;;;;;10.03;37.26;98555.23;1728443;80;20160;-65
2023/03/05 09:15:39;;;;;;;0.70;0.57;;;;;;;10.57;37.81;98561.41;1729559;80;21014;-63
2023/03/05 09:18:07;;;;;;;3.87;0.72;;;;;;;10.73;37.40;98549.02;1742482;80;20974;-65
2023/03/05 09:20:35;;;;;;;7.83;0.82;;;;;;;10.82;37.07;98553.62;1741133;80;21492;-66
2023/03/05 09:23:02;;;;;;;3.80;0.60;;;;;;;10.87;36.75;98556.77;1741714;80;21023;-66
2023/03/05 09:25:29;;;;;;;1.02;0.70;;;;;;;11.14;36.80;98553.21;1738499;80;20966;-66
2023/03/05 09:27:56;;;;;;;3.45;0.78;;;;;;;11.60;36.79;98556.11;1742364;80;21058;-63
2023/03/05 09:30:25;;;;;;;2.42;0.70;;;;;;;11.93;36.46;98559.08;1705999;82;20957;-61
2023/03/05 09:32:52;;;;;;;1.30;0.70;;;;;;;12.16;36.52;98555.67;1687345;82;21004;-61
2023/03/05 09:35:19;;;;;;;1.30;0.62;;;;;;;12.98;36.46;98553.10;1695016;83;21480;-70
2023/03/05 09:37:45;;;;;;;1.45;0.90;;;;;;;13.01;36.08;98547.63;1714382;82;21544;-66
2023/03/05 09:40:18;;;;;;;1.47;0.60;;;;;;;12.73;35.55;98548.88;1714519;82;21062;-65
2023/03/05 09:43:14;;;;;;;1.10;0.60;;;;;;;12.47;35.48;98553.44;1708054;82;21648;-68
2023/03/05 09:46:15;;;;;;;1.32;0.68;;;;;;;12.34;35.26;98550.04;1704868;82;21060;-62
2023/03/05 09:48:55;;;;;;;1.10;0.78;;;;;;;12.24;35.05;98557.73;1681805;84;21045;-65
2023/03/05 09:51:41;;;;;;;4.17;0.85;;;;;;;12.63;35.02;98547.88;1679737;84;20952;-66
2023/03/05 09:54:25;;;;;;;1.35;0.72;;;;;;;12.66;34.67;98547.20;1683212;84;21126;-61
2023/03/05 09:56:57;;;;;;;1.87;0.60;;;;;;;12.80;34.77;98553.16;1682319;84;21077;-61
2023/03/05 09:59:34;;;;;;;1.57;0.90;;;;;;;13.73;34.78;98542.09;1681974;84;21607;-63
2023/03/05 10:02:10;;;;;;;2.92;0.60;;;;;;;14.85;34.97;98538.27;1676228;84;21031;-62
2023/03/05 10:04:44;;;;;;;1.42;0.80;;;;;;;16.59;34.57;98531.89;1665048;84;21045;-61
2023/03/05 10:07:20;;;;;;;2.83;1.07;;;;;;;16.86;34.21;98538.27;1639740;86;21022;-61
2023/03/05 10:10:00;;;;;;;2.25;1.20;;;;;;;16.92;34.32;98534.59;1672160;83;21541;-70
2023/03/05 10:12:41;;;;;;;3.12;1.40;;;;;;;17.29;34.38;98529.02;1657912;84;21057;-64
2023/03/05 10:15:35;;;;;;;1.52;0.72;;;;;;;18.21;34.13;98522.87;1671321;83;21636;-63
2023/03/05 10:18:42;;;;;;;3.15;0.70;;;;;;;19.60;33.86;98521.20;1691618;83;21057;-62
2023/03/05 10:21:30;;;;;;;1.67;0.70;;;;;;;19.26;32.93;98516.74;1672576;84;21060;-62
2023/03/05 10:24:22;;;;;;;2.90;0.60;;;;;;;18.11;32.56;98515.82;1670065;84;21061;-63
2023/03/05 10:26:58;;;;;;;1.75;0.75;;;;;;;18.40;32.20;98522.72;1709228;82;21556;-69
2023/03/05 10:30:06;;;;;;;2.87;0.80;;;;;;;19.08;31.89;98521.28;1756845;79;21472;-62
2023/03/05 10:32:50;;;;;;;1.42;0.70;;;;;;;18.92;31.15;98518.85;1760405;80;21029;-59
2023/03/05 10:36:00;;;;;;;1.65;0.70;;;;;;;18.56;31.02;98526.80;1756157;80;21398;-60
2023/03/05 10:38:55;;;;;;;2.10;0.55;;;;;;;17.61;30.50;98521.50;1756712;80;21052;-62
2023/03/05 10:41:44;;;;;;;1.87;0.65;;;;;;;15.92;30.07;98524.28;1670603;83;21014;-61
2023/03/05 10:44:19;;;;;;;1.45;0.70;;;;;;;14.36;29.93;98533.09;1692835;82;21011;-63
2023/03/05 10:46:47;;;;;;;2.42;0.90;;;;;;;13.15;29.62;98534.30;1713728;82;21536;-58
2023/03/05 10:49:21;;;;;;;2.95;1.27;;;;;;;12.67;29.42;98533.62;1752024;80;21308;-60
2023/03/05 10:52:11;;;;;;;2.30;0.82;;;;;;;12.71;29.68;98533.26;1754231;80;21025;-64
2023/03/05 10:54:41;;;;;;;2.50;0.70;;;;;;;12.63;29.02;98530.41;1706435;82;21002;-61
2023/03/05 10:57:23;;;;;;;1.77;0.60;;;;;;;11.90;29.04;98540.99;1734969;80;21036;-62
2023/03/05 11:00:19;;;;;;;2.10;0.53;;;;;;;11.01;28.52;98541.91;1752561;80;21485;-61
2023/03/05 11:03:05;;;;;;;1.12;0.60;;;;;;;10.02;28.54;98533.98;1745434;80;21065;-63
2023/03/05 11:05:53;;;;;;;1.15;0.72;;;;;;;13.41;29.49;98526.23;1744764;80;21098;-64
2023/03/05 11:08:37;;;;;;;1.35;0.70;;;;;;;14.66;28.84;98514.48;1745432;80;21058;-59
2023/03/05 11:11:12;;;;;;;4.15;0.78;;;;;;;17.94;29.28;98514.00;1749941;80;21611;-59
2023/03/05 11:14:00;;;;;;;1.20;0.55;;;;;;;20.12;28.74;98498.55;1693280;82;21055;-62
2023/03/05 11:16:29;;;;;;;;;;;;;;;18.80;29.00;98508.20;1751413;80;21058;-60
2023/03/05 11:19:20;;;;;;;3.05;0.75;;;;;;;17.47;28.39;98511.44;1710822;82;20105;-64
2023/03/05 11:22:09;;;;;;;2.40;0.85;;;;;;;16.47;28.72;98517.21;1648975;84;20986;-58
2023/03/05 11:24:37;;;;;;;1.80;0.68;;;;;;;14.85;28.03;98513.79;1668653;84;20987;-62
2023/03/05 11:27:12;;;;;;;0.93;0.57;;;;;;;12.84;27.83;98522.70;1698161;83;21040;-61
2023/03/05 11:29:44;;;;;;;1.65;0.80;;;;;;;11.68;27.80;98524.20;1692904;83;21650;-63
2023/03/05 11:32:24;;;;;;;2.58;0.60;;;;;;;10.82;27.57;98519.67;1693051;83;21030;-70
2023/03/05 11:34:54;;;;;;;1.05;0.68;;;;;;;10.79;27.58;98523.80;1694013;83;22132;-61
2023/03/05 11:37:31;;;;;;;2.22;0.93;;;;;;;10.48;27.50;98516.70;1695227;83;20985;-63
2023/03/05 11:40:20;;;;;;;1.92;0.93;;;;;;;11.71;27.94;98517.92;1692634;83;21027;-62
2023/03/05 11:42:56;;;;;;;4.12;1.10;;;;;;;15.63;28.09;98499.20;1694759;83;21656;-64
2023/03/05 11:45:26;;;;;;;1.25;0.72;;;;;;;18.96;27.99;98483.66;1671954;83;20964;-72
2023/03/05 11:48:12;;;;;;;2.45;0.50;;;;;;;22.20;28.56;98477.85;1698323;83;20963;-59
2023/03/05 11:50:41;;;;;;;1.80;0.50;;;;;;;24.14;28.53;98477.77;1615509;87;21095;-60
2023/03/05 11:53:22;;;;;;;1.77;0.88;;;;;;;22.94;28.35;98470.91;1610109;87;21097;-59